CheckWX is a tool to help pilots better visualize weather data.  It is not intended as a substitute for an official pre-flight weather briefing.

13:26:10 UTC

LFAT METAR
Le Touquet-Côte d'Opale Airport
Le Touquet-Paris-Plage, France
Current

26 mins ago

LFAT 241300Z AUTO 32013KT 8000 NSC 21/10 Q1017 NOSIG
Observed
May-24 @ 13:00 UTC
Wind
  • 320° at 13 KTS
Visibility
7,998 meters
Flight Rules
MVFR
Cloud Levels
  • Clear skies
Temperature
21°C / 70°F
Dewpoint
10°C / 50°F
Humidity
50%
Altimeter
30.03" Hg
Pressure
1016.92 hPa
Previous

56 mins ago

LFAT 241230Z AUTO 33013KT 9000 NSC 20/10 Q1017 NOSIG
Observed
May-24 @ 12:30 UTC
Wind
  • 330° at 13 KTS
Visibility
8,996 meters
Flight Rules
VFR
Cloud Levels
  • Clear skies
Temperature
20°C / 68°F
Dewpoint
10°C / 50°F
Humidity
53%
Altimeter
30.03" Hg
Pressure
1016.92 hPa
Previous

1 hour ago

LFAT 241200Z AUTO 33011KT 9000 FEW045 21/12 Q1017 NOSIG
Observed
May-24 @ 12:00 UTC
Wind
  • 330° at 11 KTS
Visibility
8,996 meters
Flight Rules
VFR
Cloud Levels
  • Few at 4,500' AGL
Temperature
21°C / 70°F
Dewpoint
12°C / 54°F
Humidity
57%
Altimeter
30.03" Hg
Pressure
1016.92 hPa